Time;durP1;ratioP1;P1;durP2;ratioP2;P2;SDS_P1;SDS_P2;PMS_P1;PMS_P2;Temp;Humidity;BMP_temperature;BMP_pressure;BME280_temperature;BME280_humidity;BME280_pressure;Samples;Min_cycle;Max_cycle;Signal;HPM_P1;HPM_P2
2021/10/22 00:03:03;;;;;;;5.97;1.45;;;;;;;8.53;61.09;99523.39;2122197;83;31819;-67
2021/10/22 00:06:10;;;;;;;5.25;1.47;;;;;;;8.45;61.12;99535.78;2152021;81;32558;-66
2021/10/22 00:09:17;;;;;;;9.43;1.70;;;;;;;8.37;61.36;99547.33;2145316;82;27755;-68
2021/10/22 00:12:22;;;;;;;4.83;1.70;;;;;;;8.28;61.47;99550.00;2153181;81;27951;-68
2021/10/22 00:15:29;;;;;;;8.55;1.72;;;;;;;8.22;61.56;99549.02;2138440;82;28654;-66
2021/10/22 00:18:34;;;;;;;7.65;1.55;;;;;;;8.15;61.76;99562.27;2137081;82;31183;-65
2021/10/22 00:21:41;;;;;;;5.30;1.75;;;;;;;8.08;62.00;99572.88;2168367;80;32932;-65
2021/10/22 00:24:48;;;;;;;11.28;2.27;;;;;;;8.00;62.00;99575.94;2162448;82;27623;-67
2021/10/22 00:27:54;;;;;;;4.72;1.60;;;;;;;7.93;62.07;99575.39;2120623;83;27686;-67
2021/10/22 00:30:56;;;;;;;9.38;2.02;;;;;;;7.87;62.12;99577.02;2189845;80;29488;-67
2021/10/22 00:33:58;;;;;;;7.72;2.20;;;;;;;7.82;62.41;99591.04;2169683;82;31833;-66
2021/10/22 00:37:00;;;;;;;12.50;2.55;;;;;;;7.76;62.51;99586.88;2150540;81;32956;-66
2021/10/22 00:40:04;;;;;;;7.03;1.98;;;;;;;7.67;62.54;99584.68;2105986;82;29335;-67
2021/10/22 00:43:07;;;;;;;9.20;1.90;;;;;;;7.64;62.61;99588.34;2122656;82;27740;-67
2021/10/22 00:46:08;;;;;;;10.75;2.60;;;;;;;7.58;62.60;99594.84;2114383;82;29505;-64
2021/10/22 00:49:11;;;;;;;10.55;2.12;;;;;;;7.55;62.54;99586.14;2124836;83;31003;-66
2021/10/22 00:52:16;;;;;;;9.63;1.82;;;;;;;7.52;62.48;99591.61;2119789;82;33754;-68
2021/10/22 00:55:22;;;;;;;7.65;2.08;;;;;;;7.51;62.43;99595.22;2119699;83;29327;-66
2021/10/22 00:58:28;;;;;;;8.73;2.22;;;;;;;7.49;62.29;99598.42;2117835;83;28571;-65
2021/10/22 01:01:30;;;;;;;5.85;1.72;;;;;;;7.48;62.23;99595.36;2104163;83;28648;-65
2021/10/22 01:04:35;;;;;;;8.15;2.25;;;;;;;7.44;62.31;99603.52;2123259;82;31864;-64
2021/10/22 01:07:44;;;;;;;9.38;1.60;;;;;;;7.42;62.21;99605.84;2121726;82;33735;-64
2021/10/22 01:10:50;;;;;;;10.43;1.80;;;;;;;7.38;62.05;99610.47;2122048;83;29355;-68
2021/10/22 01:13:56;;;;;;;8.65;2.30;;;;;;;7.35;62.10;99626.59;2121153;82;27692;-70
2021/10/22 01:17:02;;;;;;;7.05;2.02;;;;;;;7.32;62.07;99619.22;2124414;82;28723;-67
2021/10/22 01:20:13;;;;;;;8.90;2.02;;;;;;;7.31;62.25;99629.00;2114996;82;31009;-70
2021/10/22 01:23:22;;;;;;;7.30;1.85;;;;;;;7.28;62.13;99632.69;2106333;83;32970;-68
2021/10/22 01:26:25;;;;;;;11.45;2.00;;;;;;;7.27;62.32;99638.95;2082865;84;29355;-69
2021/10/22 01:29:30;;;;;;;5.97;1.57;;;;;;;7.28;62.32;99651.81;2061598;86;27740;-66
2021/10/22 01:32:36;;;;;;;15.03;1.62;;;;;;;7.34;62.41;99640.00;2063837;86;29501;-69
2021/10/22 01:35:38;;;;;;;8.08;2.37;;;;;;;7.41;62.36;99650.75;2025263;86;31037;-70
2021/10/22 01:38:43;;;;;;;8.40;1.80;;;;;;;7.52;62.13;99671.13;2069119;84;32947;-68
2021/10/22 01:41:47;;;;;;;8.78;2.37;;;;;;;7.61;62.08;99663.16;2066514;84;29331;-64
2021/10/22 01:44:52;;;;;;;10.48;1.50;;;;;;;7.65;61.77;99659.38;2074200;84;27752;-64
2021/10/22 01:47:55;;;;;;;10.00;1.82;;;;;;;7.66;61.67;99667.77;2070948;84;28657;-65
2021/10/22 01:51:01;;;;;;;12.80;1.85;;;;;;;7.64;61.57;99677.64;2065740;86;31028;-68
2021/10/22 01:54:03;;;;;;;6.92;1.75;;;;;;;7.61;61.55;99684.48;2066655;86;33033;-64
2021/10/22 01:57:10;;;;;;;9.93;2.22;;;;;;;7.56;61.51;99687.83;2066104;84;30121;-69
2021/10/22 02:00:12;;;;;;;4.10;1.90;;;;;;;7.52;61.56;99691.11;2066106;85;27719;-65
2021/10/22 02:03:17;;;;;;;12.60;1.62;;;;;;;7.45;61.52;99697.65;2066843;85;28632;-64
2021/10/22 02:06:23;;;;;;;7.37;1.77;;;;;;;7.40;61.58;99696.98;2076477;84;31044;-67
2021/10/22 02:09:28;;;;;;;7.80;1.90;;;;;;;7.34;61.61;99694.14;2083012;84;33107;-67
2021/10/22 02:12:33;;;;;;;8.03;1.82;;;;;;;7.29;61.63;99702.36;2066488;84;30384;-64
2021/10/22 02:15:38;;;;;;;12.75;2.20;;;;;;;7.24;61.65;99703.51;2075409;84;27726;-67
2021/10/22 02:18:44;;;;;;;13.78;2.27;;;;;;;7.19;61.72;99709.05;2064920;84;29551;-64
2021/10/22 02:21:45;;;;;;;9.73;2.45;;;;;;;7.14;61.79;99700.39;2081502;83;31803;-66
2021/10/22 02:24:51;;;;;;;10.82;2.05;;;;;;;7.09;61.85;99699.27;2132098;82;33001;-66
2021/10/22 02:27:55;;;;;;;11.75;1.62;;;;;;;7.05;61.79;99695.46;2115542;83;29319;-65
2021/10/22 02:30:57;;;;;;;5.30;1.43;;;;;;;7.00;61.91;99697.00;2099391;84;27680;-64
2021/10/22 02:33:58;;;;;;;7.75;2.30;;;;;;;6.95;61.98;99703.87;2118380;82;28696;-65
2021/10/22 02:37:00;;;;;;;11.43;2.35;;;;;;;6.90;62.01;99709.86;2152301;82;31005;-65
2021/10/22 02:40:07;;;;;;;12.25;2.40;;;;;;;6.85;62.11;99710.55;2096599;83;32361;-64
2021/10/22 02:43:08;;;;;;;9.15;1.80;;;;;;;6.81;62.20;99717.78;2108795;83;28808;-64
2021/10/22 02:46:14;;;;;;;9.98;2.05;;;;;;;6.77;62.30;99716.21;2094599;83;28281;-65
2021/10/22 02:49:19;;;;;;;5.87;1.60;;;;;;;6.74;62.31;99715.45;2061574;83;28062;-65
2021/10/22 02:52:21;;;;;;;7.00;1.67;;;;;;;6.71;62.37;99720.91;2156951;80;31143;-65
2021/10/22 02:55:26;;;;;;;8.28;2.47;;;;;;;6.68;62.45;99721.47;2119851;82;33776;-65
2021/10/22 02:58:31;;;;;;;10.90;1.98;;;;;;;6.65;62.53;99715.38;2128883;83;29340;-64
2021/10/22 03:01:35;;;;;;;7.42;2.02;;;;;;;6.61;62.59;99731.11;2120699;83;28147;-64
2021/10/22 03:04:37;;;;;;;11.50;2.20;;;;;;;6.56;62.72;99728.62;2133397;82;28631;-65
2021/10/22 03:07:42;;;;;;;6.80;2.30;;;;;;;6.54;62.87;99737.13;2122164;83;30999;-67
2021/10/22 03:10:48;;;;;;;10.48;3.27;;;;;;;6.51;62.85;99735.47;2121831;82;33942;-68
2021/10/22 03:13:53;;;;;;;11.85;2.87;;;;;;;6.49;62.91;99741.80;2131449;82;30107;-66
2021/10/22 03:16:58;;;;;;;11.38;3.05;;;;;;;6.49;63.06;99751.96;2123267;82;27712;-67
2021/10/22 03:20:07;;;;;;;8.43;2.00;;;;;;;6.49;63.02;99755.10;2120881;83;28669;-66
2021/10/22 03:23:14;;;;;;;7.95;2.45;;;;;;;6.49;63.15;99761.75;2125832;82;31009;-66
2021/10/22 03:26:17;;;;;;;9.70;2.02;;;;;;;6.51;63.20;99768.73;2114201;83;34142;-67
2021/10/22 03:29:22;;;;;;;8.68;2.35;;;;;;;6.53;63.20;99773.53;2108522;84;30112;-69
2021/10/22 03:32:26;;;;;;;13.08;2.35;;;;;;;6.57;63.21;99773.41;2114700;83;28551;-69
2021/10/22 03:35:32;;;;;;;11.45;2.40;;;;;;;6.58;63.28;99773.81;2107185;84;28668;-69
2021/10/22 03:38:34;;;;;;;20.55;3.47;;;;;;;6.59;63.23;99776.40;2109423;84;31221;-68
2021/10/22 03:41:36;;;;;;;17.30;2.37;;;;;;;6.59;63.20;99779.54;2107655;83;33007;-70
2021/10/22 03:44:42;;;;;;;9.73;2.45;;;;;;;6.57;63.12;99787.56;2095352;84;29388;-69
2021/10/22 03:47:48;;;;;;;11.30;1.92;;;;;;;6.54;63.23;99784.58;2086361;84;27639;-67
2021/10/22 03:50:54;;;;;;;16.80;2.77;;;;;;;6.52;63.14;99798.41;2155021;80;28630;-66
2021/10/22 03:54:00;;;;;;;10.13;2.02;;;;;;;6.48;63.33;99794.14;2178967;80;31230;-66
2021/10/22 03:57:05;;;;;;;10.00;1.80;;;;;;;6.44;63.17;99803.20;2094643;83;32926;-67
2021/10/22 04:00:13;;;;;;;10.78;1.87;;;;;;;6.39;63.23;99807.34;2120446;83;29300;-67
2021/10/22 04:03:18;;;;;;;6.72;2.17;;;;;;;6.34;63.24;99801.81;2133668;83;27612;-68
2021/10/22 04:06:24;;;;;;;10.25;1.98;;;;;;;6.29;63.25;99801.16;2132984;83;28645;-69
2021/10/22 04:09:36;;;;;;;10.80;1.92;;;;;;;6.24;63.30;99806.63;2134039;82;31005;-66
2021/10/22 04:12:36;;;;;;;15.30;2.83;;;;;;;6.17;63.31;99816.66;2132154;82;32967;-65
2021/10/22 04:15:45;;;;;;;17.92;3.17;;;;;;;6.13;63.33;99817.69;2133591;83;29338;-65
2021/10/22 04:18:49;;;;;;;13.60;3.02;;;;;;;6.09;63.44;99816.10;2133931;82;27731;-65
2021/10/22 04:21:55;;;;;;;10.78;2.87;;;;;;;6.04;63.53;99818.06;2132324;83;33608;-66
2021/10/22 04:25:01;;;;;;;10.35;2.50;;;;;;;5.98;63.53;99818.25;2113511;83;31051;-66
2021/10/22 04:28:05;;;;;;;13.58;2.55;;;;;;;5.93;63.65;99825.97;2135932;82;33781;-66
2021/10/22 04:31:07;;;;;;;10.75;2.17;;;;;;;5.91;63.66;99825.60;2109751;82;29459;-66
2021/10/22 04:34:10;;;;;;;12.30;3.10;;;;;;;5.87;63.75;99824.01;2102774;83;27657;-66
2021/10/22 04:40:37;;;;;;;10.70;2.17;;;;;;;5.80;63.90;99823.83;2100039;83;31027;-66
2021/10/22 04:43:39;;;;;;;9.23;2.05;;;;;;;5.76;63.91;99839.03;2096647;84;32948;-66
2021/10/22 04:46:44;;;;;;;6.85;2.02;;;;;;;5.73;64.03;99834.67;2074124;85;31100;-66
2021/10/22 04:49:49;;;;;;;13.70;2.20;;;;;;;5.71;64.05;99835.66;2080315;83;27592;-65
2021/10/22 04:52:55;;;;;;;12.78;2.70;;;;;;;5.66;64.12;99838.94;2100105;84;28659;-65
2021/10/22 04:56:02;;;;;;;13.28;2.33;;;;;;;5.63;64.21;99838.12;2097895;84;31803;-65
2021/10/22 04:59:08;;;;;;;18.17;3.22;;;;;;;5.61;64.21;99842.66;2098733;83;32947;-66
2021/10/22 05:02:13;;;;;;;16.45;3.60;;;;;;;5.59;64.31;99835.65;2081407;84;29331;-67
2021/10/22 05:05:15;;;;;;;11.50;3.25;;;;;;;5.59;64.40;99839.63;2105209;83;27687;-67
2021/10/22 05:08:19;;;;;;;12.75;2.10;;;;;;;5.56;64.44;99833.98;2099753;84;28841;-67
2021/10/22 05:11:25;;;;;;;14.68;2.85;;;;;;;5.55;64.49;99838.00;2100694;83;31829;-67
2021/10/22 05:14:29;;;;;;;15.75;2.83;;;;;;;5.54;64.57;99841.14;2098831;84;33894;-67
2021/10/22 05:17:35;;;;;;;16.93;3.02;;;;;;;5.54;64.65;99837.15;2154081;81;29473;-67
2021/10/22 05:20:40;;;;;;;15.45;2.75;;;;;;;5.54;64.48;99843.80;2146436;80;28073;-67
2021/10/22 05:23:47;;;;;;;13.75;2.62;;;;;;;5.55;64.60;99843.31;2132602;82;30084;-67
2021/10/22 05:26:50;;;;;;;22.35;3.08;;;;;;;5.54;64.62;99850.44;2117845;83;31042;-66
2021/10/22 05:29:54;;;;;;;14.78;3.15;;;;;;;5.54;64.59;99856.23;2131753;82;34223;-67
2021/10/22 05:33:00;;;;;;;13.13;2.98;;;;;;;5.54;64.60;99857.08;2138620;82;29325;-66
2021/10/22 05:36:02;;;;;;;14.73;2.92;;;;;;;5.55;64.68;99867.23;2133086;82;27713;-67
2021/10/22 05:39:07;;;;;;;18.10;3.58;;;;;;;5.54;64.65;99869.03;2155713;82;28642;-68
2021/10/22 05:42:13;;;;;;;9.23;3.00;;;;;;;5.55;64.67;99867.23;2121018;83;31891;-65
2021/10/22 05:45:17;;;;;;;10.23;2.90;;;;;;;5.55;64.69;99862.80;2123002;83;32947;-65
2021/10/22 05:48:18;;;;;;;19.20;5.75;;;;;;;5.56;64.73;99868.97;2123120;83;30160;-65
2021/10/22 05:51:24;;;;;;;17.00;4.22;;;;;;;5.58;64.81;99865.80;2128243;82;27678;-66
2021/10/22 05:54:29;;;;;;;17.30;3.25;;;;;;;5.61;64.83;99873.22;2105312;83;28626;-65
2021/10/22 05:57:31;;;;;;;19.77;4.47;;;;;;;5.65;64.91;99877.07;2131292;83;30979;-66
2021/10/22 06:00:37;;;;;;;15.75;3.98;;;;;;;5.69;64.92;99870.73;2131581;82;32930;-65
2021/10/22 06:03:43;;;;;;;14.63;3.42;;;;;;;5.73;64.84;99875.87;2122696;83;29369;-67
2021/10/22 06:06:49;;;;;;;17.55;3.47;;;;;;;5.80;64.95;99870.34;2125486;81;27738;-66
2021/10/22 06:09:52;;;;;;;12.28;4.17;;;;;;;5.87;64.88;99875.84;2146266;82;29697;-67
2021/10/22 06:12:58;;;;;;;16.62;4.10;;;;;;;5.94;64.76;99873.34;2162569;82;31120;-67
2021/10/22 06:16:04;;;;;;;12.28;3.75;;;;;;;6.02;64.78;99882.40;2153217;82;32941;-65
2021/10/22 06:19:10;;;;;;;10.75;3.05;;;;;;;6.09;64.72;99890.56;2129295;82;29321;-67
2021/10/22 06:25:26;;;;;;;15.28;2.90;;;;;;;6.28;64.63;99898.70;2063205;84;28705;-66
2021/10/22 06:28:32;;;;;;;25.35;3.83;;;;;;;6.38;64.51;99894.74;2084049;84;31055;-66
2021/10/22 06:31:38;;;;;;;14.95;3.17;;;;;;;6.50;64.38;99898.72;2081258;85;33885;-66
2021/10/22 06:34:44;;;;;;;18.87;3.22;;;;;;;6.66;64.28;99907.43;2054623;85;29311;-67
2021/10/22 06:37:49;;;;;;;20.27;3.62;;;;;;;6.84;64.16;99903.17;2095222;84;28291;-66
2021/10/22 06:40:57;;;;;;;16.73;3.17;;;;;;;7.08;64.07;99903.97;2089284;84;28632;-66
2021/10/22 06:44:02;;;;;;;12.78;2.90;;;;;;;7.34;63.73;99903.80;2077326;85;31271;-65
2021/10/22 06:47:07;;;;;;;22.35;4.40;;;;;;;7.65;63.43;99907.31;2076684;85;32969;-66
2021/10/22 06:50:15;;;;;;;16.27;4.30;;;;;;;7.98;62.94;99907.23;2083814;84;29497;-66
2021/10/22 06:53:20;;;;;;;17.77;3.25;;;;;;;8.24;62.56;99906.03;2083570;85;27829;-65
2021/10/22 06:56:26;;;;;;;15.50;3.25;;;;;;;8.46;62.37;99919.23;2076124;85;28724;-66
2021/10/22 06:59:32;;;;;;;9.55;3.27;;;;;;;8.64;61.97;99913.99;2072452;85;31002;-65
2021/10/22 07:02:51;;;;;;;12.90;3.50;;;;;;;8.79;61.37;99921.27;2125058;82;32363;-66
2021/10/22 07:09:03;;;;;;;14.07;3.10;;;;;;;9.33;60.87;99929.78;2102968;82;27618;-66
2021/10/22 07:12:08;;;;;;;12.00;2.80;;;;;;;9.75;60.52;99936.12;2139302;83;28681;-66
2021/10/22 07:15:15;;;;;;;13.90;2.37;;;;;;;10.17;60.34;99936.16;2135039;82;30987;-66
2021/10/22 07:18:21;;;;;;;11.70;2.95;;;;;;;10.57;59.76;99931.30;2121875;83;33029;-66
2021/10/22 07:21:27;;;;;;;9.63;2.20;;;;;;;10.97;59.15;99935.38;2106566;83;29365;-67
2021/10/22 07:24:28;;;;;;;15.15;2.70;;;;;;;11.38;58.62;99935.65;2129584;82;27656;-67
2021/10/22 07:27:35;;;;;;;12.35;2.65;;;;;;;11.66;57.73;99935.34;2180407;81;28681;-66
2021/10/22 07:30:43;;;;;;;14.00;2.70;;;;;;;12.02;56.58;99926.98;2136817;82;31055;-67
2021/10/22 07:33:47;;;;;;;12.73;2.90;;;;;;;12.31;56.80;99935.92;2113731;83;33766;-66
2021/10/22 07:36:51;;;;;;;15.70;2.83;;;;;;;12.64;56.11;99932.52;2152947;82;29325;-66
2021/10/22 07:39:56;;;;;;;11.67;3.17;;;;;;;12.90;55.33;99927.67;2142060;83;27747;-66
2021/10/22 07:43:02;;;;;;;12.05;2.45;;;;;;;13.15;54.94;99934.60;2131346;83;28634;-67
2021/10/22 07:46:07;;;;;;;9.30;2.90;;;;;;;13.40;54.02;99941.93;2165070;81;31014;-67
2021/10/22 07:49:12;;;;;;;14.10;2.80;;;;;;;13.65;53.72;99931.67;2156149;81;33793;-65
2021/10/22 07:52:18;;;;;;;14.10;2.52;;;;;;;13.91;53.54;99946.53;2153582;81;30439;-66
2021/10/22 07:55:23;;;;;;;7.87;2.22;;;;;;;14.13;52.23;99935.61;2130665;82;27751;-65
2021/10/22 07:58:28;;;;;;;7.45;2.40;;;;;;;14.30;51.83;99945.17;2158263;82;28636;-65
2021/10/22 08:01:34;;;;;;;9.08;2.40;;;;;;;14.37;51.74;99946.48;2152304;81;31005;-65
2021/10/22 08:04:41;;;;;;;10.35;2.92;;;;;;;14.43;51.24;99947.37;2147782;81;33887;-65
2021/10/22 08:07:48;;;;;;;8.38;2.80;;;;;;;14.54;51.20;99953.84;2150196;82;29324;-67
2021/10/22 08:10:54;;;;;;;8.03;3.08;;;;;;;14.54;50.34;99941.71;2152348;81;27683;-66
2021/10/22 08:13:59;;;;;;;10.45;2.45;;;;;;;14.35;49.59;99940.80;2151115;82;28641;-65
2021/10/22 08:17:05;;;;;;;9.60;2.60;;;;;;;14.01;49.60;99940.02;2150383;82;32012;-68
2021/10/22 08:20:17;;;;;;;13.38;2.83;;;;;;;13.69;49.68;99940.42;2150059;82;32946;-65
2021/10/22 08:23:19;;;;;;;9.85;2.60;;;;;;;13.37;49.54;99942.95;2149555;82;29319;-65
2021/10/22 08:26:24;;;;;;;11.33;3.15;;;;;;;13.04;49.68;99944.72;2137399;82;27770;-65
2021/10/22 08:29:30;;;;;;;9.63;3.17;;;;;;;12.88;50.25;99948.41;2160296;81;28655;-65
2021/10/22 08:32:36;;;;;;;7.15;2.35;;;;;;;12.82;50.08;99943.92;2157935;81;31114;-64
2021/10/22 08:35:42;;;;;;;11.90;2.15;;;;;;;12.72;49.95;99946.34;2140739;83;32990;-65
2021/10/22 08:38:47;;;;;;;13.05;2.22;;;;;;;12.63;49.34;99938.39;2142722;81;30151;-64
2021/10/22 08:41:54;;;;;;;13.13;2.70;;;;;;;12.54;49.85;99945.67;2142297;81;27696;-64
2021/10/22 08:44:56;;;;;;;11.35;3.00;;;;;;;12.50;49.87;99944.13;2140203;82;28646;-65
2021/10/22 08:48:02;;;;;;;10.80;2.42;;;;;;;12.50;49.99;99938.77;2140826;82;31228;-66
2021/10/22 08:51:05;;;;;;;6.85;2.25;;;;;;;12.37;49.36;99940.05;2140531;82;32982;-66
2021/10/22 08:54:12;;;;;;;13.05;2.30;;;;;;;12.28;49.67;99937.45;2140990;81;29327;-65
2021/10/22 08:57:17;;;;;;;8.33;1.80;;;;;;;12.23;49.42;99940.90;2152645;81;27715;-65
2021/10/22 09:00:23;;;;;;;7.47;2.15;;;;;;;12.21;49.77;99930.27;2145857;81;28616;-65
2021/10/22 09:03:40;;;;;;;11.25;2.25;;;;;;;12.24;49.88;99926.52;2139044;83;31047;-65
2021/10/22 09:06:51;;;;;;;12.98;2.75;;;;;;;12.31;49.73;99927.87;2140555;83;33755;-65
2021/10/22 09:10:18;;;;;;;7.33;1.98;;;;;;;12.41;49.55;99925.47;2140740;81;29330;-65
2021/10/22 09:13:29;;;;;;;8.90;1.75;;;;;;;12.45;48.91;99922.94;2044189;85;27798;-65
2021/10/22 09:16:33;;;;;;;9.58;2.25;;;;;;;12.48;49.11;99923.25;2060670;85;29515;-66
2021/10/22 09:19:42;;;;;;;10.82;2.02;;;;;;;12.51;49.30;99915.84;2038675;87;31022;-66
2021/10/22 09:22:54;;;;;;;10.40;2.67;;;;;;;12.57;48.93;99907.87;2036369;85;34194;-66
2021/10/22 09:26:24;;;;;;;12.85;1.82;;;;;;;12.57;48.63;99912.78;2014099;87;28599;-68
2021/10/22 09:29:29;;;;;;;8.63;1.85;;;;;;;12.60;48.29;99910.36;2053197;86;27764;-67
2021/10/22 09:32:35;;;;;;;3.55;1.20;;;;;;;12.61;48.38;99903.53;2037827;86;28657;-69
2021/10/22 09:35:54;;;;;;;7.78;2.05;;;;;;;12.63;48.27;99900.77;2053934;86;31861;-67
2021/10/22 09:39:25;;;;;;;7.42;1.85;;;;;;;12.58;47.80;99905.06;2028794;87;33735;-67
2021/10/22 09:42:30;;;;;;;9.13;2.00;;;;;;;12.64;48.06;99902.49;2030010;86;30203;-67
2021/10/22 09:45:36;;;;;;;9.00;2.60;;;;;;;12.73;47.28;99888.94;2015993;86;27625;-68
2021/10/22 09:48:42;;;;;;;8.03;2.45;;;;;;;12.87;47.70;99889.35;2059537;86;28732;-66
2021/10/22 09:51:48;;;;;;;7.87;2.47;;;;;;;13.06;47.76;99892.55;2107116;84;31081;-66
2021/10/22 09:55:12;;;;;;;11.28;2.70;;;;;;;13.30;47.23;99895.03;2109795;83;32954;-66
2021/10/22 09:58:18;;;;;;;7.35;2.58;;;;;;;13.51;46.84;99890.05;2160441;82;29406;-66
2021/10/22 10:01:23;;;;;;;5.72;2.10;;;;;;;13.68;46.85;99888.40;2126679;83;27832;-67
2021/10/22 10:04:30;;;;;;;9.05;2.50;;;;;;;13.86;46.05;99888.08;2033552;84;28824;-67
2021/10/22 10:07:38;;;;;;;11.97;2.30;;;;;;;13.94;46.09;99879.00;2134805;83;30996;-66
2021/10/22 10:10:45;;;;;;;5.78;1.40;;;;;;;14.01;45.41;99881.23;2138568;82;33780;-67
2021/10/22 10:13:49;;;;;;;7.78;2.27;;;;;;;14.08;45.50;99875.30;2104259;83;29340;-66
2021/10/22 10:16:57;;;;;;;9.63;1.85;;;;;;;14.16;45.29;99880.64;2124007;83;27684;-66
2021/10/22 10:20:01;;;;;;;10.45;1.77;;;;;;;14.22;45.15;99873.48;2139370;82;28702;-66
2021/10/22 10:23:07;;;;;;;5.00;2.02;;;;;;;14.26;44.95;99876.30;2108254;83;31021;-67
2021/10/22 10:26:32;;;;;;;6.17;2.35;;;;;;;14.26;44.63;99862.83;2135486;81;33163;-66
2021/10/22 10:29:45;;;;;;;;;;;;;;;14.19;44.54;99867.80;2137973;83;29368;-66
2021/10/22 10:32:50;;;;;;;7.78;2.30;;;;;;;14.04;44.32;99864.39;2167355;81;27683;-68
2021/10/22 10:35:55;;;;;;;8.15;2.42;;;;;;;13.91;44.17;99856.78;2147546;81;28639;-68
2021/10/22 10:38:59;;;;;;;5.97;1.65;;;;;;;13.91;44.68;99859.48;2112335;83;31097;-67
2021/10/22 10:42:33;;;;;;;5.97;1.72;;;;;;;13.94;43.92;99851.19;2160002;81;33916;-68
2021/10/22 10:45:43;;;;;;;5.60;2.08;;;;;;;13.92;43.67;99849.97;2174255;81;29229;-69
2021/10/22 10:48:49;;;;;;;5.28;2.20;;;;;;;13.96;44.11;99846.09;2145375;81;27669;-67
2021/10/22 10:51:57;;;;;;;5.30;1.35;;;;;;;13.96;44.06;99847.91;2123031;82;28734;-68
2021/10/22 10:55:40;;;;;;;9.53;1.70;;;;;;;14.01;44.21;99842.19;2150153;82;31087;-70
2021/10/22 10:58:45;;;;;;;4.87;1.67;;;;;;;14.07;43.99;99841.25;2118481;82;35468;-67
2021/10/22 11:01:59;;;;;;;6.72;2.20;;;;;;;14.11;42.94;99843.27;2111631;84;27719;-67
2021/10/22 11:05:04;;;;;;;7.20;1.70;;;;;;;14.15;43.28;99834.47;2112546;84;27732;-69
2021/10/22 11:08:38;;;;;;;8.00;1.72;;;;;;;14.26;43.37;99835.89;2115694;82;28643;-68
2021/10/22 11:11:44;;;;;;;5.00;1.85;;;;;;;14.32;42.96;99838.15;2128150;83;31821;-69
2021/10/22 11:14:56;;;;;;;4.72;1.50;;;;;;;14.45;43.21;99830.03;2128551;82;33120;-67
2021/10/22 11:17:54;;;;;;;5.25;1.98;;;;;;;14.62;43.27;99823.88;2153377;82;29316;-69
2021/10/22 11:21:04;;;;;;;6.10;1.80;;;;;;;14.75;43.20;99822.02;2172847;81;27653;-69
2021/10/22 11:24:15;;;;;;;8.40;1.80;;;;;;;14.76;42.18;99825.56;2173076;81;29967;-67
2021/10/22 11:27:27;;;;;;;10.03;2.50;;;;;;;14.76;42.40;99823.73;2144995;82;31734;-67
2021/10/22 11:30:35;;;;;;;7.10;1.75;;;;;;;14.79;42.43;99818.13;2098971;82;33142;-70
2021/10/22 11:33:43;;;;;;;6.05;2.37;;;;;;;14.80;42.51;99819.84;2064914;84;29514;-66
2021/10/22 11:37:08;;;;;;;5.22;2.15;;;;;;;14.81;42.24;99812.60;2114766;84;27693;-69
2021/10/22 11:40:19;;;;;;;7.17;2.22;;;;;;;14.82;41.66;99797.64;2115249;82;29995;-68
2021/10/22 11:43:26;;;;;;;3.70;1.25;;;;;;;14.81;42.11;99800.47;2114197;84;31199;-68
2021/10/22 11:46:49;;;;;;;3.60;1.55;;;;;;;14.81;41.65;99807.20;2114664;84;32972;-69
2021/10/22 11:49:55;;;;;;;4.95;1.98;;;;;;;14.73;41.87;99807.28;2142331;82;29352;-67
2021/10/22 11:53:12;;;;;;;4.50;1.70;;;;;;;14.69;42.01;99815.25;2098575;84;27767;-67
2021/10/22 11:56:18;;;;;;;6.87;1.75;;;;;;;14.58;41.75;99811.09;2077803;85;29575;-68
2021/10/22 11:59:27;;;;;;;7.33;1.70;;;;;;;14.54;41.81;99805.08;2098085;84;30563;-70
2021/10/22 12:02:33;;;;;;;6.78;1.80;;;;;;;14.54;41.63;99802.89;2084651;84;32377;-70
2021/10/22 12:05:42;;;;;;;7.30;1.35;;;;;;;14.47;41.65;99802.95;2096825;84;29317;-70
2021/10/22 12:08:51;;;;;;;5.55;1.52;;;;;;;14.44;41.80;99805.41;2083093;84;27752;-67
2021/10/22 12:12:15;;;;;;;4.62;1.67;;;;;;;14.43;41.72;99809.07;2107650;84;28656;-68
2021/10/22 12:15:27;;;;;;;9.23;1.75;;;;;;;14.38;41.39;99801.33;2108053;84;30996;-69
2021/10/22 12:18:34;;;;;;;4.62;1.50;;;;;;;14.44;41.72;99805.41;2104269;84;32945;-65
2021/10/22 12:21:39;;;;;;;6.85;1.40;;;;;;;14.47;40.85;99801.14;2063424;85;29502;-68
2021/10/22 12:24:51;;;;;;;7.40;1.62;;;;;;;14.41;41.10;99795.69;2078859;84;27766;-67
2021/10/22 12:27:57;;;;;;;10.18;1.60;;;;;;;14.30;40.89;99805.56;2070855;85;29584;-65
2021/10/22 12:31:16;;;;;;;6.03;1.62;;;;;;;14.32;41.14;99801.77;2070728;85;31077;-66
2021/10/22 12:34:32;;;;;;;5.62;1.45;;;;;;;14.31;40.57;99798.70;2071260;85;33145;-67
2021/10/22 12:37:39;;;;;;;4.92;1.67;;;;;;;14.21;40.46;99802.55;2071290;85;29336;-67
2021/10/22 12:40:50;;;;;;;6.70;1.50;;;;;;;14.17;40.41;99798.86;2069164;85;28306;-68
2021/10/22 12:44:13;;;;;;;6.37;1.47;;;;;;;14.13;40.34;99792.34;2071157;85;28680;-67
2021/10/22 12:47:20;;;;;;;6.25;1.30;;;;;;;14.12;40.35;99792.46;2004314;88;32047;-67
2021/10/22 12:50:31;;;;;;;6.28;1.62;;;;;;;14.10;40.12;99796.59;2054857;85;33926;-66
2021/10/22 12:53:39;;;;;;;8.60;1.52;;;;;;;14.08;39.89;99789.11;2071188;85;29601;-66
2021/10/22 12:56:46;;;;;;;4.65;1.20;;;;;;;14.12;39.93;99783.03;2071067;85;27754;-65
2021/10/22 12:59:52;;;;;;;6.00;2.00;;;;;;;14.13;39.71;99766.75;2052965;84;28697;-65
2021/10/22 13:03:00;;;;;;;3.98;1.57;;;;;;;14.18;39.16;99761.02;2053801;85;31032;-65
2021/10/22 13:06:26;;;;;;;13.83;3.62;;;;;;;14.17;39.43;99753.91;2078259;84;33946;-66
2021/10/22 13:09:46;;;;;;;5.83;2.62;;;;;;;14.21;39.28;99766.69;2090865;83;29338;-66
2021/10/22 13:13:14;;;;;;;7.35;2.60;;;;;;;14.22;39.20;99773.80;2113199;84;27704;-66
2021/10/22 13:23:11;;;;;;;6.47;1.70;;;;;;;14.24;39.45;99764.62;2057863;85;33025;-66
2021/10/22 13:26:15;;;;;;;10.45;2.45;;;;;;;14.28;39.45;99758.50;2047979;85;30125;-65
2021/10/22 13:29:21;;;;;;;6.10;2.15;;;;;;;14.22;39.49;99761.67;2054050;85;27808;-65
2021/10/22 13:32:29;;;;;;;5.40;1.80;;;;;;;14.21;39.51;99760.80;2132165;83;28842;-65
2021/10/22 13:35:34;;;;;;;5.78;1.75;;;;;;;14.11;39.17;99755.22;2121155;82;31074;-66
2021/10/22 13:38:40;;;;;;;4.53;1.60;;;;;;;13.98;39.14;99753.91;2085253;84;33083;-67
2021/10/22 13:41:46;;;;;;;7.33;1.95;;;;;;;13.87;38.83;99752.48;2065345;85;29316;-66
2021/10/22 13:44:52;;;;;;;7.35;1.85;;;;;;;13.77;39.16;99748.75;2087168;84;27652;-66
2021/10/22 13:47:55;;;;;;;5.22;1.45;;;;;;;13.70;39.13;99748.80;2110115;84;28638;-66
2021/10/22 13:51:01;;;;;;;7.08;2.00;;;;;;;13.60;38.95;99741.40;2118663;83;31840;-66
2021/10/22 13:54:04;;;;;;;7.65;2.60;;;;;;;13.54;39.18;99726.17;2117126;83;32949;-65
2021/10/22 13:57:10;;;;;;;18.87;7.08;;;;;;;13.46;39.23;99724.88;2109831;83;29385;-65
2021/10/22 14:00:16;;;;;;;6.55;2.05;;;;;;;13.41;39.16;99742.32;2138595;82;27791;-65
2021/10/22 14:03:22;;;;;;;4.30;1.60;;;;;;;13.32;38.79;99742.45;2107297;84;29300;-66
2021/10/22 14:06:32;;;;;;;4.58;1.95;;;;;;;13.24;39.15;99730.05;2106595;84;32006;-65
2021/10/22 14:09:35;;;;;;;10.55;2.40;;;;;;;13.21;39.24;99730.62;2118866;83;32931;-65
2021/10/22 14:12:44;;;;;;;15.35;6.03;;;;;;;13.16;39.16;99738.61;2117152;83;29420;-65
2021/10/22 14:19:19;;;;;;;4.78;2.25;;;;;;;12.99;39.36;99741.14;2117071;84;28688;-66
2021/10/22 14:31:59;;;;;;;6.95;2.22;;;;;;;12.74;40.13;99743.68;2127653;82;27705;-67
2021/10/22 14:35:03;;;;;;;8.70;2.00;;;;;;;12.68;40.36;99742.74;2150282;82;29641;-67
2021/10/22 14:38:08;;;;;;;6.75;2.62;;;;;;;12.64;40.54;99751.12;2147966;82;31088;-66
2021/10/22 14:41:13;;;;;;;9.80;2.37;;;;;;;12.59;40.54;99744.72;2141580;82;33758;-66
2021/10/22 14:44:26;;;;;;;5.58;2.00;;;;;;;12.53;40.57;99743.77;2128570;83;29369;-66
2021/10/22 14:50:47;;;;;;;4.25;2.00;;;;;;;12.40;40.42;99735.70;2105117;83;29507;-66
2021/10/22 14:53:59;;;;;;;7.92;2.35;;;;;;;12.31;40.53;99727.77;2128821;82;33363;-66
2021/10/22 14:57:04;;;;;;;8.93;2.52;;;;;;;12.24;40.74;99734.02;2144471;82;33983;-67
2021/10/22 15:00:10;;;;;;;15.18;5.33;;;;;;;12.18;40.70;99729.52;2148874;82;29495;-66
2021/10/22 15:03:20;;;;;;;21.90;9.75;;;;;;;12.11;40.97;99726.37;2128715;82;27693;-66
2021/10/22 15:06:28;;;;;;;15.28;7.85;;;;;;;12.05;41.18;99726.79;2143725;81;27936;-67
2021/10/22 15:09:31;;;;;;;9.45;3.67;;;;;;;11.94;41.40;99723.42;2157525;82;31043;-67
2021/10/22 15:12:37;;;;;;;7.20;4.05;;;;;;;11.86;41.52;99729.28;2157965;82;33866;-67
2021/10/22 15:15:44;;;;;;;9.20;3.65;;;;;;;11.78;41.49;99732.92;2140589;82;29321;-67